createdAt,value
2019-03-18T00:01:04.356Z,12.00
2019-03-18T00:03:33.756Z,12.00
2019-03-18T00:06:03.208Z,12.00
2019-03-18T00:08:32.667Z,12.00
2019-03-18T00:11:02.897Z,12.10
2019-03-18T00:13:32.258Z,12.00
2019-03-18T00:16:01.741Z,12.00
2019-03-18T00:18:31.139Z,12.10
2019-03-18T00:21:00.517Z,12.00
2019-03-18T00:23:29.891Z,12.00
2019-03-18T00:26:18.615Z,12.00
2019-03-18T00:28:47.999Z,12.10
2019-03-18T00:31:17.388Z,12.00
2019-03-18T00:33:46.770Z,12.00
2019-03-18T00:36:16.166Z,12.00
2019-03-18T00:38:45.566Z,12.00
2019-03-18T00:41:15.004Z,12.00
2019-03-18T00:43:44.395Z,12.00
2019-03-18T00:46:13.787Z,12.00
2019-03-18T00:48:43.146Z,11.90
2019-03-18T00:51:12.664Z,11.90
2019-03-18T00:53:42.055Z,12.00
2019-03-18T00:56:11.431Z,12.00
2019-03-18T00:58:40.822Z,12.10
2019-03-18T01:01:10.197Z,12.10
2019-03-18T01:03:39.660Z,12.10
2019-03-18T01:06:09.103Z,12.10
2019-03-18T01:08:38.487Z,12.00
2019-03-18T01:11:07.864Z,12.00
2019-03-18T01:13:37.255Z,12.00
2019-03-18T01:16:06.629Z,12.10
2019-03-18T01:18:36.070Z,12.10
2019-03-18T01:21:05.503Z,12.00
2019-03-18T01:23:34.889Z,11.90
2019-03-18T01:26:05.683Z,11.90
2019-03-18T01:28:35.094Z,11.80
2019-03-18T01:31:04.504Z,11.70
2019-03-18T01:33:33.893Z,11.70
2019-03-18T01:36:03.237Z,11.70
2019-03-18T01:38:32.606Z,11.60
2019-03-18T01:41:01.979Z,11.60
2019-03-18T01:43:31.435Z,11.60
2019-03-18T01:46:00.803Z,11.60
2019-03-18T01:48:30.183Z,11.50
2019-03-18T01:50:59.526Z,11.60
2019-03-18T01:53:28.883Z,11.50
2019-03-18T01:55:58.235Z,11.50
2019-03-18T01:58:27.587Z,11.50
2019-03-18T02:00:56.938Z,11.40
2019-03-18T02:03:26.301Z,11.40
2019-03-18T02:05:55.727Z,11.40
2019-03-18T02:08:25.096Z,11.40
2019-03-18T02:10:54.705Z,11.40
2019-03-18T02:13:24.066Z,11.40
2019-03-18T02:15:53.949Z,11.30
2019-03-18T02:18:23.431Z,11.30
2019-03-18T02:20:52.810Z,11.30
2019-03-18T02:23:42.536Z,11.30
2019-03-18T02:26:11.966Z,11.30
2019-03-18T02:28:41.312Z,11.40
2019-03-18T02:31:11.879Z,11.30
2019-03-18T02:33:41.263Z,11.30
2019-03-18T02:36:10.699Z,11.30
2019-03-18T02:38:40.053Z,11.30
2019-03-18T02:41:09.460Z,11.30
2019-03-18T02:43:40.098Z,11.30
2019-03-18T02:46:10.911Z,11.30
2019-03-18T02:48:40.566Z,11.30
2019-03-18T02:51:09.939Z,11.30
2019-03-18T02:53:39.374Z,11.30
2019-03-18T02:56:08.745Z,11.20
2019-03-18T02:58:38.107Z,11.20
2019-03-18T03:01:07.632Z,11.30
2019-03-18T03:03:37.421Z,11.30
2019-03-18T03:06:06.936Z,11.30
2019-03-18T03:08:36.284Z,11.30
2019-03-18T03:11:05.914Z,11.30
2019-03-18T03:13:35.358Z,11.20
2019-03-18T03:16:04.799Z,11.20
2019-03-18T03:18:34.166Z,11.10
2019-03-18T03:21:03.524Z,11.10
2019-03-18T03:23:32.943Z,11.10
2019-03-18T03:26:02.301Z,11.20
2019-03-18T03:28:31.662Z,11.20
2019-03-18T03:31:01.076Z,11.10
2019-03-18T03:33:30.511Z,11.10
2019-03-18T03:35:59.913Z,11.10
2019-03-18T03:38:29.268Z,11.10
2019-03-18T03:40:58.711Z,11.20
2019-03-18T03:43:28.138Z,11.10
2019-03-18T03:45:57.928Z,11.10
2019-03-18T03:48:27.515Z,11.10
2019-03-18T03:50:57.007Z,11.10
2019-03-18T03:53:30.612Z,11.10
2019-03-18T03:55:57.661Z,11.00
2019-03-18T03:58:27.139Z,11.00
2019-03-18T04:00:56.671Z,11.00
2019-03-18T04:03:37.745Z,11.10
2019-03-18T04:05:57.127Z,11.00
2019-03-18T04:08:27.125Z,11.10
2019-03-18T04:11:00.109Z,11.10
2019-03-18T04:13:29.519Z,11.10
2019-03-18T04:15:58.880Z,11.20
2019-03-18T04:18:42.069Z,11.10
2019-03-18T04:21:11.423Z,11.20
2019-03-18T04:23:40.786Z,11.20
2019-03-18T04:26:10.356Z,11.20
2019-03-18T04:28:39.772Z,11.20
2019-03-18T04:31:10.200Z,11.10
2019-03-18T04:33:39.589Z,11.00
2019-03-18T04:36:09.083Z,11.00
2019-03-18T04:38:38.438Z,11.00
2019-03-18T04:41:07.798Z,11.10
2019-03-18T04:43:37.145Z,11.20
2019-03-18T04:46:07.578Z,11.20
2019-03-18T04:48:36.932Z,11.30
2019-03-18T04:51:06.295Z,11.40
2019-03-18T04:53:35.655Z,11.50
2019-03-18T04:56:05.014Z,11.60
2019-03-18T04:58:34.380Z,11.60
2019-03-18T05:01:03.757Z,11.60
2019-03-18T05:03:33.102Z,11.70
2019-03-18T05:06:02.658Z,11.80
2019-03-18T05:08:32.079Z,11.70
2019-03-18T05:11:01.436Z,11.80
2019-03-18T05:13:30.793Z,11.80
2019-03-18T05:16:01.227Z,11.70
2019-03-18T05:18:30.664Z,11.70
2019-03-18T05:21:00.008Z,11.70
2019-03-18T05:23:29.398Z,11.70
2019-03-18T05:25:58.814Z,11.70
2019-03-18T05:28:28.172Z,11.60
2019-03-18T05:30:57.592Z,11.60
2019-03-18T05:33:26.948Z,11.50
2019-03-18T05:35:56.288Z,11.30
2019-03-18T05:38:25.710Z,11.10
2019-03-18T05:40:55.122Z,11.10
2019-03-18T05:43:24.478Z,11.20
2019-03-18T05:45:53.895Z,11.20
2019-03-18T05:48:23.238Z,11.20
2019-03-18T05:50:52.590Z,11.40
2019-03-18T05:53:21.958Z,11.70
2019-03-18T05:55:51.299Z,11.90
2019-03-18T05:58:21.726Z,12.00
2019-03-18T06:00:51.123Z,12.00
2019-03-18T06:03:20.668Z,12.10
2019-03-18T06:05:50.038Z,11.90
2019-03-18T06:08:19.385Z,11.90
2019-03-18T06:10:48.742Z,11.80
2019-03-18T06:13:18.104Z,11.70
2019-03-18T06:15:47.445Z,11.70
2019-03-18T06:18:16.808Z,11.60
2019-03-18T06:20:46.270Z,11.60
2019-03-18T06:23:15.655Z,11.70
2019-03-18T06:25:45.004Z,11.70
2019-03-18T06:28:14.392Z,11.70
2019-03-18T06:30:44.098Z,11.70
2019-03-18T06:33:13.451Z,11.70
2019-03-18T06:35:42.819Z,11.70
2019-03-18T06:38:12.182Z,11.80
2019-03-18T06:40:41.614Z,11.70
2019-03-18T06:43:10.962Z,11.70
2019-03-18T06:45:40.335Z,11.80
2019-03-18T06:48:09.698Z,11.80
2019-03-18T06:50:39.070Z,11.50
2019-03-18T06:53:08.418Z,11.30
2019-03-18T06:55:37.777Z,11.40
2019-03-18T06:58:07.207Z,11.60
2019-03-18T07:00:36.542Z,11.80
2019-03-18T07:03:05.936Z,12.00
2019-03-18T07:05:35.345Z,12.10
2019-03-18T07:08:04.702Z,12.10
2019-03-18T07:10:34.067Z,12.20
2019-03-18T07:13:03.444Z,12.30
2019-03-18T07:15:32.823Z,12.30
2019-03-18T07:18:02.192Z,12.30
2019-03-18T07:20:31.584Z,12.40
2019-03-18T07:23:00.967Z,12.50
2019-03-18T07:25:30.419Z,12.50
2019-03-18T07:27:59.884Z,12.50
2019-03-18T07:30:29.366Z,12.60
2019-03-18T07:32:58.751Z,12.60
2019-03-18T07:35:28.214Z,12.50
2019-03-18T07:37:57.587Z,12.50
2019-03-18T07:40:26.963Z,12.50
2019-03-18T07:42:56.355Z,12.50
2019-03-18T07:45:25.741Z,12.50
2019-03-18T07:47:55.137Z,12.60
2019-03-18T07:50:25.587Z,12.70
2019-03-18T07:52:54.983Z,12.70
2019-03-18T07:55:24.351Z,12.70
2019-03-18T07:57:53.855Z,12.70
2019-03-18T08:00:23.292Z,12.80
2019-03-18T08:02:52.687Z,12.80
2019-03-18T08:05:22.071Z,12.90
2019-03-18T08:07:51.464Z,12.80
2019-03-18T08:10:20.877Z,12.80
2019-03-18T08:12:50.330Z,12.70
2019-03-18T08:15:19.719Z,12.70
2019-03-18T08:17:49.115Z,12.80
2019-03-18T08:20:18.504Z,12.70
2019-03-18T08:22:47.963Z,12.80
2019-03-18T08:25:17.347Z,12.90
2019-03-18T08:27:46.731Z,13.00
2019-03-18T08:30:19.348Z,13.10
2019-03-18T08:32:48.799Z,13.30
2019-03-18T08:35:18.195Z,13.30
2019-03-18T08:37:47.715Z,13.30
2019-03-18T08:40:17.128Z,13.40
2019-03-18T08:42:46.579Z,13.40
2019-03-18T08:45:16.647Z,13.60
2019-03-18T08:47:46.023Z,13.50
2019-03-18T08:50:15.422Z,13.60
2019-03-18T08:52:46.354Z,13.80
2019-03-18T08:55:15.879Z,13.90
2019-03-18T08:57:45.362Z,14.00
2019-03-18T09:00:18.084Z,14.10
2019-03-18T09:02:47.459Z,14.10
2019-03-18T09:05:16.857Z,14.20
2019-03-18T09:07:46.303Z,14.10
2019-03-18T09:10:16.539Z,14.20
2019-03-18T09:12:45.982Z,14.20
2019-03-18T09:15:15.454Z,14.20
2019-03-18T09:17:44.831Z,14.20
2019-03-18T09:20:18.309Z,14.30
2019-03-18T09:22:47.825Z,14.40
2019-03-18T09:25:17.376Z,14.40
2019-03-18T09:27:46.784Z,14.40
2019-03-18T09:30:20.192Z,14.40
2019-03-18T09:32:49.582Z,14.50
2019-03-18T09:35:18.962Z,14.50
2019-03-18T09:37:49.443Z,14.50
2019-03-18T09:40:18.824Z,14.60
2019-03-18T09:43:02.334Z,14.60
2019-03-18T09:45:31.723Z,14.50
2019-03-18T09:48:01.101Z,14.50
2019-03-18T09:50:30.554Z,14.50
2019-03-18T09:53:01.023Z,14.60
2019-03-18T09:55:30.407Z,14.60
2019-03-18T09:57:59.788Z,14.60
2019-03-18T10:00:29.163Z,14.70
2019-03-18T10:02:58.539Z,14.70
2019-03-18T10:05:27.922Z,14.70
2019-03-18T10:07:57.379Z,14.80
2019-03-18T10:10:26.763Z,14.80
2019-03-18T10:12:56.145Z,14.80
2019-03-18T10:15:25.539Z,14.80
2019-03-18T10:17:54.907Z,14.80
2019-03-18T10:20:24.293Z,14.90
2019-03-18T10:22:53.671Z,14.90
2019-03-18T10:25:23.087Z,14.90
2019-03-18T10:27:52.465Z,14.90
2019-03-18T10:30:21.859Z,15.00
2019-03-18T10:32:51.239Z,15.00
2019-03-18T10:35:22.294Z,15.00
2019-03-18T10:37:51.666Z,15.00
2019-03-18T10:40:21.074Z,15.00
2019-03-18T10:42:50.463Z,14.90
2019-03-18T10:45:19.951Z,14.90
2019-03-18T10:47:49.406Z,14.90
2019-03-18T10:50:19.167Z,14.90
2019-03-18T10:52:48.583Z,14.90
2019-03-18T10:55:17.996Z,15.10
2019-03-18T10:57:47.643Z,15.30
2019-03-18T11:00:18.176Z,15.40
2019-03-18T11:02:47.575Z,15.60
2019-03-18T11:05:16.954Z,15.80
2019-03-18T11:07:46.338Z,15.70
2019-03-18T11:10:16.363Z,15.70
2019-03-18T11:12:45.743Z,15.70
2019-03-18T11:15:17.051Z,15.70
2019-03-18T11:17:46.511Z,15.50
2019-03-18T11:20:17.158Z,15.60
2019-03-18T11:22:46.628Z,15.60
2019-03-18T11:25:17.132Z,15.60
2019-03-18T11:27:46.589Z,15.60
2019-03-18T11:30:19.134Z,15.60
2019-03-18T11:32:48.802Z,15.50
2019-03-18T11:35:19.274Z,15.50
2019-03-18T11:37:49.744Z,15.50
2019-03-18T11:40:21.147Z,15.50
2019-03-18T11:42:50.775Z,15.50
2019-03-18T11:45:20.293Z,15.50
2019-03-18T11:47:49.688Z,15.50
2019-03-18T11:50:19.894Z,15.70
2019-03-18T11:52:49.352Z,15.70
2019-03-18T11:55:22.993Z,15.60
2019-03-18T11:57:52.456Z,15.60
2019-03-18T12:00:23.178Z,15.60
2019-03-18T12:02:52.563Z,15.60
2019-03-18T12:05:23.009Z,15.50
2019-03-18T12:07:52.560Z,15.60
2019-03-18T12:10:25.133Z,15.60
2019-03-18T12:12:53.081Z,15.50
2019-03-18T12:15:26.426Z,15.40
2019-03-18T12:17:56.847Z,15.30
2019-03-18T12:20:27.221Z,15.20
2019-03-18T12:22:56.597Z,15.10
2019-03-18T12:25:25.972Z,15.30
2019-03-18T12:27:56.127Z,15.30
2019-03-18T12:30:27.127Z,15.30
2019-03-18T12:32:56.503Z,15.30
2019-03-18T12:35:25.891Z,15.40
2019-03-18T12:37:55.350Z,15.40
2019-03-18T12:40:24.738Z,15.50
2019-03-18T12:42:54.111Z,15.70
2019-03-18T12:45:23.505Z,15.80
2019-03-18T12:47:54.040Z,15.80
2019-03-18T12:50:42.900Z,15.90
2019-03-18T12:52:55.542Z,16.00
2019-03-18T12:55:25.109Z,16.10
2019-03-18T12:57:54.558Z,15.90
2019-03-18T13:00:34.806Z,15.90
2019-03-18T13:03:05.324Z,15.90
2019-03-18T13:05:34.723Z,15.90
2019-03-18T13:08:04.111Z,16.00
2019-03-18T13:10:33.576Z,16.10
2019-03-18T13:13:04.075Z,16.00
2019-03-18T13:15:33.464Z,15.90
2019-03-18T13:18:02.855Z,15.90
2019-03-18T13:20:32.229Z,15.80
2019-03-18T13:23:02.694Z,15.80
2019-03-18T13:25:32.199Z,15.80
2019-03-18T13:28:01.687Z,15.70
2019-03-18T13:30:31.127Z,15.70
2019-03-18T13:33:00.499Z,15.70
2019-03-18T13:35:29.875Z,15.60
2019-03-18T13:37:59.276Z,15.90
2019-03-18T13:40:28.732Z,16.00
2019-03-18T13:42:58.105Z,16.00
2019-03-18T13:45:27.486Z,15.90
2019-03-18T13:47:56.877Z,15.90
2019-03-18T13:50:26.335Z,15.90
2019-03-18T13:52:55.719Z,15.90
2019-03-18T13:55:25.095Z,15.90
2019-03-18T13:57:54.476Z,15.80
2019-03-18T14:00:24.212Z,16.00
2019-03-18T14:02:53.611Z,15.90
2019-03-18T14:05:23.058Z,15.80
2019-03-18T14:08:00.323Z,15.80
2019-03-18T14:10:24.289Z,15.70
2019-03-18T14:12:53.815Z,15.70
2019-03-18T14:15:24.383Z,15.70
2019-03-18T14:17:53.851Z,15.70
2019-03-18T14:20:27.498Z,15.60
2019-03-18T14:22:56.951Z,15.50
2019-03-18T14:25:26.322Z,15.40
2019-03-18T14:27:55.719Z,15.30
2019-03-18T14:30:25.124Z,15.20
2019-03-18T14:32:54.585Z,15.10
2019-03-18T14:35:23.982Z,15.10
2019-03-18T14:37:53.376Z,15.10
2019-03-18T14:40:24.667Z,15.10
2019-03-18T14:42:54.065Z,15.10
2019-03-18T14:45:24.186Z,15.10
2019-03-18T14:47:53.579Z,15.20
2019-03-18T14:50:22.988Z,15.20
2019-03-18T14:52:52.451Z,15.20
2019-03-18T14:55:21.905Z,15.10
2019-03-18T14:57:51.295Z,15.00
2019-03-18T15:00:25.910Z,15.00
2019-03-18T15:02:56.212Z,15.00
2019-03-18T15:05:25.927Z,14.90
2019-03-18T15:07:55.321Z,14.90
2019-03-18T15:10:26.707Z,14.90
2019-03-18T15:12:56.114Z,14.90
2019-03-18T15:15:25.499Z,15.00
2019-03-18T15:17:54.901Z,15.00
2019-03-18T15:20:26.391Z,15.10
2019-03-18T15:22:55.972Z,15.10
2019-03-18T15:25:29.651Z,15.10
2019-03-18T15:27:59.045Z,15.10
2019-03-18T15:30:28.423Z,15.10
2019-03-18T15:32:57.812Z,15.10
2019-03-18T15:35:27.212Z,15.20
2019-03-18T15:37:56.608Z,15.20
2019-03-18T15:40:27.247Z,15.30
2019-03-18T15:42:56.872Z,15.40
2019-03-18T15:45:26.339Z,15.50
2019-03-18T15:47:55.805Z,15.60
2019-03-18T15:50:27.006Z,15.70
2019-03-18T15:52:56.467Z,15.70
2019-03-18T15:55:25.926Z,15.70
2019-03-18T15:57:55.408Z,15.60
2019-03-18T16:00:29.951Z,15.60
2019-03-18T16:02:59.816Z,15.70
2019-03-18T16:05:29.279Z,15.80
2019-03-18T16:07:58.836Z,15.80
2019-03-18T16:10:28.238Z,15.90
2019-03-18T16:12:57.722Z,15.90
2019-03-18T16:15:27.092Z,16.00
2019-03-18T16:17:56.544Z,15.90
2019-03-18T16:20:26.670Z,15.90
2019-03-18T16:22:56.068Z,15.80
2019-03-18T16:25:25.658Z,15.70
2019-03-18T16:27:55.060Z,15.70
2019-03-18T16:30:24.635Z,15.60
2019-03-18T16:32:54.023Z,15.50
2019-03-18T16:35:23.659Z,15.50
2019-03-18T16:37:53.042Z,15.40
2019-03-18T16:40:41.841Z,15.50
2019-03-18T16:43:12.509Z,15.50
2019-03-18T16:45:41.956Z,15.50
2019-03-18T16:48:11.348Z,15.40
2019-03-18T16:50:40.731Z,15.40
2019-03-18T16:53:10.107Z,15.30
2019-03-18T16:55:39.519Z,15.30
2019-03-18T16:58:08.906Z,15.20
2019-03-18T17:00:38.279Z,15.30
2019-03-18T17:03:07.724Z,15.20
2019-03-18T17:05:37.103Z,15.30
2019-03-18T17:08:06.480Z,15.30
2019-03-18T17:10:36.010Z,15.30
2019-03-18T17:13:05.617Z,15.30
2019-03-18T17:15:34.989Z,15.20
2019-03-18T17:18:04.375Z,15.20
2019-03-18T17:20:33.759Z,15.20
2019-03-18T17:23:03.151Z,15.20
2019-03-18T17:25:33.991Z,15.10
2019-03-18T17:28:03.569Z,15.10
2019-03-18T17:30:33.047Z,15.10
2019-03-18T17:33:02.519Z,15.00
2019-03-18T17:35:32.033Z,15.00
2019-03-18T17:38:01.454Z,14.90
2019-03-18T17:40:31.927Z,15.00
2019-03-18T17:43:01.451Z,15.00
2019-03-18T17:45:30.853Z,14.90
2019-03-18T17:48:00.320Z,14.90
2019-03-18T17:50:30.675Z,14.80
2019-03-18T17:53:03.549Z,14.70
2019-03-18T17:55:31.158Z,14.80
2019-03-18T17:58:01.240Z,14.70
2019-03-18T18:00:41.724Z,14.60
2019-03-18T18:03:11.018Z,14.60
2019-03-18T18:05:41.055Z,14.50
2019-03-18T18:08:11.080Z,14.50
2019-03-18T18:10:41.393Z,14.40
2019-03-18T18:13:11.732Z,14.30
2019-03-18T18:15:42.277Z,14.20
2019-03-18T18:18:14.568Z,14.40
2019-03-18T18:20:43.979Z,14.40
2019-03-18T18:23:15.078Z,14.30
2019-03-18T18:25:44.791Z,14.30
2019-03-18T18:28:14.285Z,14.30
2019-03-18T18:30:44.259Z,14.30
2019-03-18T18:33:14.629Z,14.30
2019-03-18T18:35:44.849Z,14.30
2019-03-18T18:38:15.069Z,14.30
2019-03-18T18:40:44.542Z,14.30
2019-03-18T18:43:13.948Z,14.40
2019-03-18T18:45:43.989Z,14.40
2019-03-18T18:48:14.316Z,14.30
2019-03-18T18:50:44.438Z,14.20
2019-03-18T18:53:25.756Z,14.20
2019-03-18T18:55:46.578Z,14.10
2019-03-18T18:58:16.087Z,13.90
2019-03-18T19:00:45.500Z,13.80
2019-03-18T19:03:15.648Z,13.70
2019-03-18T19:05:45.083Z,13.70
2019-03-18T19:08:14.482Z,13.70
2019-03-18T19:10:43.992Z,13.60
2019-03-18T19:13:13.388Z,13.60
2019-03-18T19:15:43.508Z,13.60
2019-03-18T19:18:12.939Z,13.50
2019-03-18T19:20:42.359Z,13.50
2019-03-18T19:23:11.835Z,13.50
2019-03-18T19:25:41.212Z,13.40
2019-03-18T19:28:11.274Z,13.30
2019-03-18T19:30:41.330Z,13.20
2019-03-18T19:33:11.751Z,13.10
2019-03-18T19:35:42.025Z,13.10
2019-03-18T19:38:12.325Z,13.00
2019-03-18T19:40:42.555Z,13.10
2019-03-18T19:43:12.856Z,13.00
2019-03-18T19:45:43.277Z,13.00
2019-03-18T19:48:13.396Z,13.00
2019-03-18T19:50:43.395Z,13.00
2019-03-18T19:53:14.979Z,12.90
2019-03-18T19:55:45.085Z,12.90
2019-03-18T19:58:18.392Z,12.80
2019-03-18T20:00:49.346Z,12.80
2019-03-18T20:03:19.559Z,12.80
2019-03-18T20:05:49.391Z,12.80
2019-03-18T20:08:19.467Z,12.70
2019-03-18T20:11:08.843Z,12.70
2019-03-18T20:13:39.073Z,12.70
2019-03-18T20:16:08.672Z,12.50
2019-03-18T20:18:38.225Z,12.50
2019-03-18T20:21:07.791Z,12.40
2019-03-18T20:23:37.242Z,12.40
2019-03-18T20:26:06.632Z,12.40
2019-03-18T20:28:36.011Z,12.30
2019-03-18T20:31:05.401Z,12.30
2019-03-18T20:33:35.126Z,12.30
2019-03-18T20:36:04.747Z,12.30
2019-03-18T20:38:34.143Z,12.20
2019-03-18T20:41:03.587Z,12.30
2019-03-18T20:43:32.935Z,12.20
2019-03-18T20:46:02.310Z,12.30
2019-03-18T20:48:31.718Z,12.20
2019-03-18T20:51:01.439Z,12.20
2019-03-18T20:53:30.891Z,12.20
2019-03-18T20:56:00.314Z,12.20
2019-03-18T20:58:30.850Z,12.20
2019-03-18T21:01:00.328Z,12.20
2019-03-18T21:03:29.734Z,12.20
2019-03-18T21:05:59.084Z,12.20
2019-03-18T21:08:29.443Z,12.10
2019-03-18T21:10:58.819Z,12.00
2019-03-18T21:13:28.223Z,12.00
2019-03-18T21:15:59.686Z,11.90
2019-03-18T21:18:33.106Z,12.00
2019-03-18T21:21:04.273Z,11.90
2019-03-18T21:23:33.659Z,11.90
2019-03-18T21:26:03.845Z,11.90
2019-03-18T21:28:41.182Z,11.90
2019-03-18T21:31:04.526Z,11.90
2019-03-18T21:33:33.897Z,12.00
2019-03-18T21:36:03.258Z,12.00
2019-03-18T21:38:38.631Z,12.10
2019-03-18T21:41:08.047Z,12.00
2019-03-18T21:43:37.491Z,11.90
2019-03-18T21:46:06.907Z,11.80
2019-03-18T21:48:36.270Z,11.80
2019-03-18T21:51:05.653Z,11.80
2019-03-18T21:53:35.019Z,11.70
2019-03-18T21:56:04.369Z,11.70
2019-03-18T21:58:33.732Z,11.70
2019-03-18T22:01:03.119Z,11.70
2019-03-18T22:03:32.508Z,11.60
2019-03-18T22:06:01.898Z,11.60
2019-03-18T22:08:31.311Z,11.60
2019-03-18T22:11:00.711Z,11.60
2019-03-18T22:13:30.076Z,11.60
2019-03-18T22:15:59.518Z,11.50
2019-03-18T22:18:29.518Z,11.50
2019-03-18T22:20:58.947Z,11.50
2019-03-18T22:23:28.294Z,11.50
2019-03-18T22:25:57.784Z,11.40
2019-03-18T22:28:27.139Z,11.40
2019-03-18T22:30:56.511Z,11.30
2019-03-18T22:33:25.882Z,11.30
2019-03-18T22:35:56.315Z,11.30
2019-03-18T22:38:25.846Z,11.30
2019-03-18T22:40:55.230Z,11.30
2019-03-18T22:43:24.564Z,11.30
2019-03-18T22:45:53.935Z,11.20
2019-03-18T22:48:23.347Z,11.20
2019-03-18T22:50:52.766Z,11.10
2019-03-18T22:53:22.683Z,11.10
2019-03-18T22:55:53.271Z,11.10
2019-03-18T22:58:36.581Z,11.00
2019-03-18T23:01:07.815Z,11.00
2019-03-18T23:03:37.418Z,11.00
2019-03-18T23:06:06.887Z,11.00
2019-03-18T23:08:36.365Z,11.00
2019-03-18T23:11:05.736Z,11.00
2019-03-18T23:13:35.163Z,10.90
2019-03-18T23:16:04.692Z,10.90
2019-03-18T23:18:34.039Z,11.00
2019-03-18T23:21:03.398Z,10.90
2019-03-18T23:23:32.747Z,10.80
2019-03-18T23:26:02.186Z,10.90
2019-03-18T23:28:45.338Z,10.90
2019-03-18T23:31:14.717Z,10.80
2019-03-18T23:33:44.210Z,10.80
2019-03-18T23:36:13.642Z,10.70
2019-03-18T23:38:43.067Z,10.70
2019-03-18T23:41:13.599Z,10.60
2019-03-18T23:43:42.966Z,10.50
2019-03-18T23:46:12.314Z,10.50
2019-03-18T23:48:42.986Z,10.50
2019-03-18T23:51:12.327Z,10.40
2019-03-18T23:53:41.695Z,10.40
2019-03-18T23:56:11.042Z,10.40
2019-03-18T23:58:40.411Z,10.40
